createdAt,value
2022-11-17T00:04:14.373Z,100029.40
2022-11-17T00:09:18.013Z,100032.40
2022-11-17T00:14:33.077Z,100026.20
2022-11-17T00:19:55.487Z,100031.20
2022-11-17T00:24:59.918Z,100031.20
2022-11-17T00:30:03.911Z,100036.60
2022-11-17T00:35:08.546Z,100033.60
2022-11-17T00:40:13.185Z,100029.20
2022-11-17T00:45:16.500Z,100021.40
2022-11-17T00:50:19.707Z,100012.00
2022-11-17T00:55:23.534Z,100005.60
2022-11-17T01:00:27.148Z,100010.40
2022-11-17T01:05:33.071Z,99997.60
2022-11-17T01:10:36.955Z,100000.60
2022-11-17T01:15:40.255Z,99997.60
2022-11-17T01:20:43.465Z,99995.80
2022-11-17T01:25:46.978Z,99998.00
2022-11-17T01:30:50.216Z,100001.60
2022-11-17T01:35:53.507Z,99995.40
2022-11-17T01:41:03.002Z,100003.00
2022-11-17T01:46:31.076Z,99996.00
2022-11-17T01:51:40.271Z,99995.60
2022-11-17T01:56:47.480Z,99985.60
2022-11-17T02:01:58.665Z,99982.60
2022-11-17T02:07:27.166Z,99973.40
2022-11-17T02:12:33.847Z,99970.20
2022-11-17T02:17:41.274Z,99970.80
2022-11-17T02:23:21.695Z,99968.20
2022-11-17T02:28:36.186Z,99966.60
2022-11-17T02:34:18.648Z,99962.00
2022-11-17T02:39:33.344Z,99962.80
2022-11-17T02:44:57.441Z,99962.40
2022-11-17T02:50:08.876Z,99965.60
2022-11-17T02:55:12.685Z,99968.00
2022-11-17T03:00:19.769Z,99959.60
2022-11-17T03:05:44.169Z,99956.20
2022-11-17T03:11:07.613Z,99951.20
2022-11-17T03:16:51.630Z,99955.00
2022-11-17T03:22:21.559Z,99954.80
2022-11-17T03:27:34.809Z,99953.20
2022-11-17T03:32:44.023Z,99950.20
2022-11-17T03:37:54.700Z,99951.00
2022-11-17T03:43:02.556Z,99953.00
2022-11-17T03:48:27.401Z,99963.80
2022-11-17T03:53:31.563Z,99961.40
2022-11-17T03:58:46.186Z,99957.80
2022-11-17T04:03:49.490Z,99957.20
2022-11-17T04:08:52.614Z,99944.20
2022-11-17T04:14:14.589Z,99949.80
2022-11-17T04:19:17.746Z,99945.20
2022-11-17T04:24:20.978Z,99946.00
2022-11-17T04:29:24.105Z,99950.20
2022-11-17T04:34:27.177Z,99949.00
2022-11-17T04:39:30.274Z,99953.40
2022-11-17T04:44:33.784Z,99959.60
2022-11-17T04:49:36.803Z,99956.80
2022-11-17T04:54:39.895Z,99950.60
2022-11-17T04:59:42.910Z,99948.80
2022-11-17T05:04:57.985Z,99950.60
2022-11-17T05:10:01.745Z,99952.00
2022-11-17T05:15:06.046Z,99956.40
2022-11-17T05:20:10.238Z,99960.60
2022-11-17T05:25:13.389Z,99954.60
2022-11-17T05:30:16.591Z,99949.20
2022-11-17T05:35:19.696Z,99943.60
2022-11-17T05:40:22.903Z,99941.60
2022-11-17T05:45:26.009Z,99946.40
2022-11-17T05:50:29.021Z,99949.20
2022-11-17T05:55:32.222Z,99945.20
2022-11-17T06:00:39.645Z,99952.00
2022-11-17T06:05:44.451Z,99956.40
2022-11-17T06:10:47.580Z,99953.00
2022-11-17T06:15:50.790Z,99953.20
2022-11-17T06:20:54.954Z,99952.20
2022-11-17T06:26:01.624Z,99959.80
2022-11-17T06:31:06.924Z,99952.20
2022-11-17T06:36:10.386Z,99964.00
2022-11-17T06:41:13.393Z,99955.60
2022-11-17T06:46:16.923Z,99957.80
2022-11-17T06:51:20.010Z,99957.80
2022-11-17T06:56:24.162Z,99954.00
2022-11-17T07:01:27.261Z,99950.00
2022-11-17T07:06:30.461Z,99959.00
2022-11-17T07:11:38.772Z,99972.00
2022-11-17T07:16:43.708Z,99964.40
2022-11-17T07:21:46.774Z,99961.40
2022-11-17T07:26:49.844Z,99958.60
2022-11-17T07:31:53.054Z,99963.80
2022-11-17T07:36:56.262Z,99965.60
2022-11-17T07:41:59.372Z,99960.80
2022-11-17T07:47:02.677Z,99957.20
2022-11-17T07:52:05.790Z,99955.20
2022-11-17T07:57:09.094Z,99958.80
2022-11-17T08:02:12.814Z,99952.80
2022-11-17T08:07:16.010Z,99956.60
2022-11-17T08:12:19.354Z,99962.40
2022-11-17T08:17:23.180Z,99962.40
2022-11-17T08:22:26.466Z,99968.80
2022-11-17T08:27:29.591Z,99957.40
2022-11-17T08:32:32.788Z,99960.20
2022-11-17T08:37:35.988Z,99955.80
2022-11-17T08:42:39.922Z,99957.00
2022-11-17T08:47:43.023Z,99959.20
2022-11-17T08:52:46.446Z,99962.60
2022-11-17T08:57:49.857Z,99963.00
2022-11-17T09:02:52.956Z,99962.20
2022-11-17T09:08:05.973Z,99956.00
2022-11-17T09:13:19.670Z,99950.20
2022-11-17T09:18:22.762Z,99952.80
2022-11-17T09:23:26.062Z,99951.80
2022-11-17T09:28:29.171Z,99949.00
2022-11-17T09:33:32.289Z,99942.60
2022-11-17T09:38:38.122Z,99940.00
2022-11-17T09:43:57.766Z,99931.00
2022-11-17T09:50:05.669Z,99922.40
2022-11-17T09:55:08.776Z,99914.00
2022-11-17T10:00:26.217Z,99908.00
2022-11-17T10:05:35.353Z,99899.00
2022-11-17T10:10:50.992Z,99899.20
2022-11-17T10:16:00.250Z,99902.20
2022-11-17T10:21:06.937Z,99904.00
2022-11-17T10:26:14.342Z,99900.20
2022-11-17T10:31:19.969Z,99902.20
2022-11-17T10:36:31.295Z,99893.40
2022-11-17T10:41:45.436Z,99891.20
2022-11-17T10:47:02.043Z,99888.00
2022-11-17T10:52:09.172Z,99884.80
2022-11-17T10:57:21.808Z,99889.20
2022-11-17T11:02:39.255Z,99885.60
2022-11-17T11:08:21.585Z,99876.40
2022-11-17T11:14:00.300Z,99877.60
2022-11-17T11:19:03.645Z,99872.80
2022-11-17T11:24:35.096Z,99871.20
2022-11-17T11:30:09.934Z,99863.00
2022-11-17T11:35:50.934Z,99861.80
2022-11-17T11:41:15.305Z,99856.80
2022-11-17T11:46:26.681Z,99846.40
2022-11-17T11:51:37.520Z,99844.60
2022-11-17T11:56:48.312Z,99843.60
2022-11-17T12:02:14.164Z,99838.00
2022-11-17T12:07:31.555Z,99829.80
2022-11-17T12:12:39.956Z,99828.40
2022-11-17T12:17:52.441Z,99811.60
2022-11-17T12:23:18.917Z,99819.20
2022-11-17T12:28:30.404Z,99817.20
2022-11-17T12:33:52.158Z,99811.60
2022-11-17T12:38:56.586Z,99806.20
2022-11-17T12:44:38.228Z,99813.00
2022-11-17T12:50:03.760Z,99798.80
2022-11-17T12:55:33.350Z,99795.60
2022-11-17T13:01:11.770Z,99794.00
2022-11-17T13:06:35.078Z,99788.40
2022-11-17T13:11:39.809Z,99787.00
2022-11-17T13:16:51.719Z,99783.00
2022-11-17T13:22:11.132Z,99783.60
2022-11-17T13:27:32.140Z,99791.20
2022-11-17T13:32:40.769Z,99800.00
2022-11-17T13:37:44.503Z,99794.80
2022-11-17T13:42:49.798Z,99795.40
2022-11-17T13:47:54.552Z,99792.60
2022-11-17T13:53:11.286Z,99785.80
2022-11-17T13:58:38.068Z,99782.80
2022-11-17T14:03:43.929Z,99775.40
2022-11-17T14:09:05.591Z,99772.80
2022-11-17T14:14:15.356Z,99773.80
2022-11-17T14:19:18.700Z,99775.20
2022-11-17T14:24:21.879Z,99770.60
2022-11-17T14:29:26.207Z,99773.20
2022-11-17T14:34:29.555Z,99768.80
2022-11-17T14:39:32.725Z,99761.80
2022-11-17T14:44:35.930Z,99767.00
2022-11-17T14:49:39.210Z,99770.00
2022-11-17T14:54:42.353Z,99778.40
2022-11-17T14:59:45.460Z,99778.00
2022-11-17T15:04:50.988Z,99774.40
2022-11-17T15:09:55.462Z,99759.80
2022-11-17T15:14:58.791Z,99761.40
2022-11-17T15:20:02.345Z,99764.20
2022-11-17T15:25:07.089Z,99771.00
2022-11-17T15:30:11.087Z,99780.20
2022-11-17T15:35:14.380Z,99769.20
2022-11-17T15:40:19.515Z,99775.00
2022-11-17T15:45:23.040Z,99763.80
2022-11-17T15:50:29.126Z,99772.00
2022-11-17T15:55:35.490Z,99777.20
2022-11-17T16:00:40.583Z,99783.80
2022-11-17T16:05:43.966Z,99781.00
2022-11-17T16:10:47.275Z,99775.80
2022-11-17T16:15:51.384Z,99773.00
2022-11-17T16:20:55.510Z,99771.60
2022-11-17T16:26:01.919Z,99770.40
2022-11-17T16:31:36.197Z,99761.20
2022-11-17T16:36:41.691Z,99759.40
2022-11-17T16:41:46.058Z,99748.40
2022-11-17T16:46:50.103Z,99748.20
2022-11-17T16:51:56.984Z,99743.60
2022-11-17T16:57:00.124Z,99744.40
2022-11-17T17:02:04.113Z,99748.80
2022-11-17T17:07:07.253Z,99746.80
2022-11-17T17:12:10.630Z,99757.40
2022-11-17T17:17:13.884Z,99762.40
2022-11-17T17:22:17.389Z,99751.60
2022-11-17T17:27:20.669Z,99760.60
2022-11-17T17:32:23.775Z,99751.80
2022-11-17T17:37:26.878Z,99749.80
2022-11-17T17:42:30.083Z,99746.60
2022-11-17T17:47:33.292Z,99738.80
2022-11-17T17:52:36.399Z,99734.00
2022-11-17T17:57:40.973Z,99725.80
2022-11-17T18:02:44.405Z,99733.40
2022-11-17T18:07:47.674Z,99725.40
2022-11-17T18:12:51.000Z,99724.40
2022-11-17T18:17:54.300Z,99716.60
2022-11-17T18:22:57.497Z,99717.20
2022-11-17T18:28:00.808Z,99709.20
2022-11-17T18:33:04.034Z,99712.40
2022-11-17T18:38:07.341Z,99714.00
2022-11-17T18:43:10.743Z,99721.00
2022-11-17T18:48:14.256Z,99720.00
2022-11-17T18:53:17.369Z,99721.20
2022-11-17T18:58:20.579Z,99722.60
2022-11-17T19:03:26.033Z,99715.60
2022-11-17T19:08:31.431Z,99705.40
2022-11-17T19:13:37.526Z,99711.60
2022-11-17T19:18:45.195Z,99706.60
2022-11-17T19:23:52.071Z,99705.00
2022-11-17T19:28:58.610Z,99704.60
2022-11-17T19:34:01.774Z,99691.40
2022-11-17T19:39:05.897Z,99692.60
2022-11-17T19:44:09.947Z,99698.60
2022-11-17T19:49:13.997Z,99694.40
2022-11-17T19:54:17.982Z,99697.80
2022-11-17T19:59:21.598Z,99696.20
2022-11-17T20:04:25.096Z,99689.80
2022-11-17T20:09:28.323Z,99687.60
2022-11-17T20:14:31.734Z,99678.20
2022-11-17T20:19:35.255Z,99678.60
2022-11-17T20:24:38.371Z,99683.00
2022-11-17T20:29:41.502Z,99691.40
2022-11-17T20:34:44.674Z,99695.00
2022-11-17T20:39:48.011Z,99694.60
2022-11-17T20:44:51.297Z,99692.20
2022-11-17T20:49:55.631Z,99689.40
2022-11-17T20:54:58.838Z,99684.20
2022-11-17T21:00:02.163Z,99675.00
2022-11-17T21:05:07.486Z,99671.80
2022-11-17T21:10:10.724Z,99671.80
2022-11-17T21:15:14.031Z,99667.40
2022-11-17T21:20:17.438Z,99669.20
2022-11-17T21:25:20.755Z,99675.80
2022-11-17T21:30:23.855Z,99673.40
2022-11-17T21:35:27.170Z,99670.60
2022-11-17T21:40:31.300Z,99657.00
2022-11-17T21:45:34.736Z,99653.00
2022-11-17T21:50:37.818Z,99648.80
2022-11-17T21:55:41.047Z,99653.80
2022-11-17T22:00:44.259Z,99654.20
2022-11-17T22:05:47.455Z,99652.00
2022-11-17T22:10:50.767Z,99654.40
2022-11-17T22:15:54.190Z,99660.80
2022-11-17T22:20:57.579Z,99660.20
2022-11-17T22:26:05.216Z,99659.60
2022-11-17T22:31:10.141Z,99659.60
2022-11-17T22:36:13.566Z,99652.80
2022-11-17T22:41:17.785Z,99653.00
2022-11-17T22:46:24.053Z,99651.00
2022-11-17T22:51:45.652Z,99642.60
2022-11-17T22:56:49.224Z,99645.40
2022-11-17T23:01:52.435Z,99648.60
2022-11-17T23:06:55.700Z,99641.20
2022-11-17T23:11:59.263Z,99633.80
2022-11-17T23:17:02.371Z,99628.00
2022-11-17T23:22:05.574Z,99636.20
2022-11-17T23:27:08.689Z,99627.00
2022-11-17T23:32:11.989Z,99621.00
2022-11-17T23:37:14.994Z,99626.00
2022-11-17T23:42:18.036Z,99615.40
2022-11-17T23:47:21.205Z,99617.80
2022-11-17T23:52:24.441Z,99625.80
2022-11-17T23:57:27.725Z,99635.80
